Limestone, Arkansas
Current Conditions -  °F | °C
As of 12:53 AM on Tuesday 21 Oct 2014 (Local Time) from KHRO Reporting Station
Clear Clear  
Wind Chill: 58°   Ceiling: Unl
Heat Index: 58°   Visibility: 7mi
Dew Point: 57°   Wind: 5mph
Humidity: 97%   Direction: 270°W
Pressure: 30.07"   Gusts: NA
Location:  35.8413°N, 93.3507°W
Report Text: KHRO 210553Z AUTO 27004KT 7SM CLR 14/14 A3007 RMK AO2 SLP174 T01440139 10161 20144 402220111 58001
Loading
Personal Weather Stations






























Interactive Weather Map
Tropical Storm Tracking
New forecast layout! Learn more

10-Day Weather Forecast

Advertisements
Track Severe Weather on mobile